Time,TemperatureF,DewpointF,PressureIn,WindDirection,WindDirectionDegrees,WindSpeedMPH,WindSpeedGustMPH,Humidity,HourlyPrecipIn,Conditions,Clouds,dailyrainin,SolarRadiationWatts/m^2,SoftwareType,DateUTC
2013-04-25 00:01:00,55.0,25.0,-100.00,WNW,287,10.0,13.0,31,0.00,,,0.00,0.000000,,2013-04-25 07:01:00,
2013-04-25 00:11:00,55.0,25.0,-100.00,WNW,287,10.0,13.0,31,0.00,,,0.00,0.000000,,2013-04-25 07:11:00,
2013-04-25 00:21:00,55.0,25.0,-100.00,WNW,287,10.0,13.0,31,0.00,,,0.00,0.000000,,2013-04-25 07:21:00,
2013-04-25 00:52:00,52.0,27.0,-100.00,WNW,295,10.0,14.0,38,0.00,,,0.00,0.000000,,2013-04-25 07:52:00,
2013-04-25 01:01:00,52.0,27.0,-100.00,WNW,295,10.0,14.0,38,0.00,,,0.00,0.000000,,2013-04-25 08:01:00,
2013-04-25 01:11:00,52.0,27.0,-100.00,WNW,295,10.0,14.0,38,0.00,,,0.00,0.000000,,2013-04-25 08:11:00,
2013-04-25 01:21:00,52.0,27.0,-100.00,WNW,295,10.0,14.0,38,0.00,,,0.00,0.000000,,2013-04-25 08:21:00,
2013-04-25 01:52:00,49.0,29.0,-100.00,WNW,300,7.0,11.0,46,0.00,,,0.00,0.000000,,2013-04-25 08:52:00,
2013-04-25 02:01:00,49.0,29.0,-100.00,WNW,300,7.0,11.0,46,0.00,,,0.00,0.000000,,2013-04-25 09:01:00,
2013-04-25 02:11:00,49.0,29.0,-100.00,WNW,300,7.0,11.0,46,0.00,,,0.00,0.000000,,2013-04-25 09:11:00,
2013-04-25 02:21:00,49.0,29.0,-100.00,WNW,300,7.0,11.0,46,0.00,,,0.00,0.000000,,2013-04-25 09:21:00,
2013-04-25 02:52:00,49.0,29.0,-100.00,NNE,28,3.0,12.0,45,0.00,,,0.00,0.000000,,2013-04-25 09:52:00,
2013-04-25 03:02:00,49.0,29.0,-100.00,NNE,28,3.0,12.0,45,0.00,,,0.00,0.000000,,2013-04-25 10:02:00,
2013-04-25 03:12:00,49.0,29.0,-100.00,NNE,28,3.0,12.0,45,0.00,,,0.00,0.000000,,2013-04-25 10:12:00,
2013-04-25 03:22:00,49.0,29.0,-100.00,NNE,28,3.0,12.0,45,0.00,,,0.00,0.000000,,2013-04-25 10:22:00,
2013-04-25 03:53:00,46.0,29.0,-100.00,WNW,300,8.0,10.0,51,0.00,,,0.00,0.000000,,2013-04-25 10:53:00,
2013-04-25 04:02:00,46.0,29.0,-100.00,WNW,300,8.0,10.0,51,0.00,,,0.00,0.000000,,2013-04-25 11:02:00,
2013-04-25 04:12:00,46.0,29.0,-100.00,WNW,300,8.0,10.0,51,0.00,,,0.00,0.000000,,2013-04-25 11:12:00,
2013-04-25 04:22:00,46.0,29.0,-100.00,WNW,300,8.0,10.0,51,0.00,,,0.00,0.000000,,2013-04-25 11:22:00,
2013-04-25 04:52:00,47.0,29.0,-100.00,West,270,6.0,10.0,49,0.00,,,-99.99,0.000000,,2013-04-25 11:52:00,
2013-04-25 05:01:00,47.0,29.0,-100.00,West,270,6.0,10.0,49,0.00,,,-99.99,0.000000,,2013-04-25 12:01:00,
2013-04-25 05:12:00,47.0,29.0,-100.00,West,270,6.0,10.0,49,0.00,,,-99.99,0.000000,,2013-04-25 12:12:00,
2013-04-25 05:21:00,47.0,29.0,-100.00,West,270,6.0,10.0,49,0.00,,,-99.99,0.000000,,2013-04-25 12:21:00,
2013-04-25 05:52:00,47.0,30.0,-100.00,NW,310,8.0,10.0,52,0.00,,,0.00,0.000000,,2013-04-25 12:52:00,
2013-04-25 06:02:00,47.0,30.0,-100.00,NW,310,8.0,10.0,52,0.00,,,0.00,0.000000,,2013-04-25 13:02:00,
2013-04-25 06:11:00,47.0,30.0,-100.00,NW,310,8.0,10.0,52,0.00,,,0.00,0.000000,,2013-04-25 13:11:00,
2013-04-25 06:21:00,47.0,30.0,-100.00,NW,310,8.0,10.0,52,0.00,,,0.00,0.000000,,2013-04-25 13:21:00,
2013-04-25 06:52:00,47.0,31.0,-100.00,WNW,290,6.0,9.0,53,0.00,,,-99.99,21.000000,,2013-04-25 13:52:00,
2013-04-25 07:01:00,47.0,31.0,-100.00,WNW,290,6.0,9.0,53,0.00,,,-99.99,21.000000,,2013-04-25 14:01:00,
2013-04-25 07:11:00,47.0,31.0,-100.00,WNW,290,6.0,9.0,53,0.00,,,-99.99,21.000000,,2013-04-25 14:11:00,
2013-04-25 07:21:00,47.0,31.0,-100.00,WNW,290,6.0,9.0,53,0.00,,,-99.99,21.000000,,2013-04-25 14:21:00,
2013-04-25 07:52:00,49.0,32.0,-100.00,ESE,102,3.0,8.0,51,0.00,,,0.00,177.000000,,2013-04-25 14:52:00,
2013-04-25 08:02:00,49.0,32.0,-100.00,ESE,102,3.0,8.0,51,0.00,,,0.00,177.000000,,2013-04-25 15:02:00,
2013-04-25 08:11:00,49.0,32.0,-100.00,ESE,102,3.0,8.0,51,0.00,,,0.00,177.000000,,2013-04-25 15:11:00,
2013-04-25 08:21:00,49.0,32.0,-100.00,ESE,102,3.0,8.0,51,0.00,,,0.00,177.000000,,2013-04-25 15:21:00,
2013-04-25 08:53:00,56.0,34.0,-100.00,ESE,116,5.0,7.0,43,0.00,,,0.00,381.000000,,2013-04-25 15:53:00,
2013-04-25 09:02:00,56.0,34.0,-100.00,ESE,116,5.0,7.0,43,0.00,,,0.00,381.000000,,2013-04-25 16:02:00,
2013-04-25 09:13:00,56.0,34.0,-100.00,ESE,116,5.0,7.0,43,0.00,,,0.00,381.000000,,2013-04-25 16:13:00,
2013-04-25 09:24:00,56.0,34.0,-100.00,ESE,116,5.0,7.0,43,0.00,,,0.00,381.000000,,2013-04-25 16:24:00,
2013-04-25 09:52:00,63.0,36.0,-100.00,ENE,64,3.0,7.0,37,0.00,,,0.00,584.000000,,2013-04-25 16:52:00,
2013-04-25 10:02:00,63.0,36.0,-100.00,ENE,64,3.0,7.0,37,0.00,,,0.00,584.000000,,2013-04-25 17:02:00,
2013-04-25 10:11:00,63.0,36.0,-100.00,ENE,64,3.0,7.0,37,0.00,,,0.00,584.000000,,2013-04-25 17:11:00,
2013-04-25 10:22:00,63.0,36.0,-100.00,ENE,64,3.0,7.0,37,0.00,,,0.00,584.000000,,2013-04-25 17:22:00,
2013-04-25 10:53:00,66.0,34.0,-100.00,SSE,168,5.0,9.0,31,0.00,,,0.00,756.000000,,2013-04-25 17:53:00,
2013-04-25 11:01:00,66.0,34.0,-100.00,SSE,168,5.0,9.0,31,0.00,,,0.00,756.000000,,2013-04-25 18:01:00,
2013-04-25 11:11:00,66.0,34.0,-100.00,SSE,168,5.0,9.0,31,0.00,,,0.00,756.000000,,2013-04-25 18:11:00,
2013-04-25 11:21:00,66.0,34.0,-100.00,SSE,168,5.0,9.0,31,0.00,,,0.00,756.000000,,2013-04-25 18:21:00,
2013-04-25 11:53:00,68.0,35.0,-100.00,WNW,289,5.0,10.0,30,0.00,,,0.00,871.000000,,2013-04-25 18:53:00,
2013-04-25 12:01:00,68.0,35.0,-100.00,WNW,289,5.0,10.0,30,0.00,,,0.00,871.000000,,2013-04-25 19:01:00,
2013-04-25 12:12:00,68.0,35.0,-100.00,WNW,289,5.0,10.0,30,0.00,,,0.00,871.000000,,2013-04-25 19:12:00,
2013-04-25 12:21:00,68.0,35.0,-100.00,WNW,289,5.0,10.0,30,0.00,,,0.00,871.000000,,2013-04-25 19:21:00,
2013-04-25 12:52:00,71.0,33.0,-100.00,West,260,5.0,12.0,25,0.00,,,0.00,960.000000,,2013-04-25 19:52:00,
2013-04-25 13:01:00,71.0,33.0,-100.00,West,260,5.0,12.0,25,0.00,,,0.00,960.000000,,2013-04-25 20:01:00,
2013-04-25 13:11:00,71.0,33.0,-100.00,West,260,5.0,12.0,25,0.00,,,0.00,960.000000,,2013-04-25 20:11:00,
2013-04-25 13:22:00,71.0,33.0,-100.00,West,260,5.0,12.0,25,0.00,,,0.00,960.000000,,2013-04-25 20:22:00,
2013-04-25 13:52:00,75.0,34.0,-100.00,SSW,198,6.0,15.0,22,0.00,,,0.00,959.000000,,2013-04-25 20:52:00,
2013-04-25 14:01:00,75.0,34.0,-100.00,SSW,198,6.0,15.0,22,0.00,,,0.00,959.000000,,2013-04-25 21:01:00,
2013-04-25 14:11:00,75.0,34.0,-100.00,SSW,198,6.0,15.0,22,0.00,,,0.00,959.000000,,2013-04-25 21:11:00,
2013-04-25 14:21:00,75.0,34.0,-100.00,SSW,198,6.0,15.0,22,0.00,,,0.00,959.000000,,2013-04-25 21:21:00,
2013-04-25 14:53:00,76.0,31.0,-100.00,South,177,5.0,13.0,19,0.00,,,0.00,940.000000,,2013-04-25 21:53:00,
2013-04-25 15:02:00,76.0,31.0,-100.00,South,177,5.0,13.0,19,0.00,,,0.00,940.000000,,2013-04-25 22:02:00,
2013-04-25 15:12:00,76.0,31.0,-100.00,South,177,5.0,13.0,19,0.00,,,0.00,940.000000,,2013-04-25 22:12:00,
2013-04-25 15:22:00,76.0,31.0,-100.00,South,177,5.0,13.0,19,0.00,,,0.00,940.000000,,2013-04-25 22:22:00,
2013-04-25 15:53:00,77.0,33.0,-100.00,SSW,213,5.0,14.0,20,0.00,,,0.00,783.000000,,2013-04-25 22:53:00,
2013-04-25 16:02:00,77.0,33.0,-100.00,SSW,213,5.0,14.0,20,0.00,,,0.00,783.000000,,2013-04-25 23:02:00,
2013-04-25 16:12:00,77.0,33.0,-100.00,SSW,213,5.0,14.0,20,0.00,,,0.00,783.000000,,2013-04-25 23:12:00,
2013-04-25 16:21:00,77.0,33.0,-100.00,SSW,213,5.0,14.0,20,0.00,,,0.00,783.000000,,2013-04-25 23:21:00,
2013-04-25 16:52:00,78.0,36.0,-100.00,South,171,8.0,14.0,22,0.00,,,0.00,697.000000,,2013-04-25 23:52:00,
2013-04-25 17:01:00,78.0,36.0,-100.00,South,171,8.0,14.0,22,0.00,,,0.00,697.000000,,2013-04-26 00:01:00,
2013-04-25 17:11:00,78.0,36.0,-100.00,South,171,8.0,14.0,22,0.00,,,0.00,697.000000,,2013-04-26 00:11:00,
2013-04-25 17:21:00,78.0,36.0,-100.00,South,171,8.0,14.0,22,0.00,,,0.00,697.000000,,2013-04-26 00:21:00,
2013-04-25 17:52:00,77.0,35.0,-100.00,NE,48,4.0,13.0,22,0.00,,,-99.99,518.000000,,2013-04-26 00:52:00,
2013-04-25 18:01:00,77.0,35.0,-100.00,NE,48,4.0,13.0,22,0.00,,,-99.99,518.000000,,2013-04-26 01:01:00,
2013-04-25 18:11:00,77.0,35.0,-100.00,NE,48,4.0,13.0,22,0.00,,,-99.99,518.000000,,2013-04-26 01:11:00,
2013-04-25 18:21:00,77.0,35.0,-100.00,NE,48,4.0,13.0,22,0.00,,,-99.99,518.000000,,2013-04-26 01:21:00,
2013-04-25 18:52:00,75.0,42.0,-100.00,West,266,11.0,16.0,31,0.00,,,0.00,293.000000,,2013-04-26 01:52:00,
2013-04-25 19:01:00,75.0,42.0,-100.00,West,266,11.0,16.0,31,0.00,,,0.00,293.000000,,2013-04-26 02:01:00,
2013-04-25 19:11:00,75.0,42.0,-100.00,West,266,11.0,16.0,31,0.00,,,0.00,293.000000,,2013-04-26 02:11:00,
2013-04-25 19:21:00,75.0,42.0,-100.00,West,266,11.0,16.0,31,0.00,,,0.00,293.000000,,2013-04-26 02:21:00,
2013-04-25 19:52:00,68.0,43.0,-100.00,WNW,283,12.0,16.0,40,0.00,,,0.00,137.000000,,2013-04-26 02:52:00,
2013-04-25 20:01:00,68.0,43.0,-100.00,WNW,283,12.0,16.0,40,0.00,,,0.00,137.000000,,2013-04-26 03:01:00,
2013-04-25 20:11:00,68.0,43.0,-100.00,WNW,283,12.0,16.0,40,0.00,,,0.00,137.000000,,2013-04-26 03:11:00,
2013-04-25 20:21:00,68.0,43.0,-100.00,WNW,283,12.0,16.0,40,0.00,,,0.00,137.000000,,2013-04-26 03:21:00,
2013-04-25 20:53:00,63.0,41.0,-100.00,WNW,297,11.0,16.0,44,0.00,,,0.00,13.000000,,2013-04-26 03:53:00,
2013-04-25 21:02:00,63.0,41.0,-100.00,WNW,297,11.0,16.0,44,0.00,,,0.00,13.000000,,2013-04-26 04:02:00,
2013-04-25 21:12:00,63.0,41.0,-100.00,WNW,297,11.0,16.0,44,0.00,,,0.00,13.000000,,2013-04-26 04:12:00,
2013-04-25 21:22:00,63.0,41.0,-100.00,WNW,297,11.0,16.0,44,0.00,,,0.00,13.000000,,2013-04-26 04:22:00,
2013-04-25 21:53:00,62.0,39.0,-100.00,WNW,294,12.0,17.0,43,0.00,,,0.00,0.000000,,2013-04-26 04:53:00,
2013-04-25 22:02:00,62.0,39.0,-100.00,WNW,294,12.0,17.0,43,0.00,,,0.00,0.000000,,2013-04-26 05:02:00,
2013-04-25 22:12:00,62.0,39.0,-100.00,WNW,294,12.0,17.0,43,0.00,,,0.00,0.000000,,2013-04-26 05:12:00,
2013-04-25 22:22:00,62.0,39.0,-100.00,WNW,294,12.0,17.0,43,0.00,,,0.00,0.000000,,2013-04-26 05:22:00,
2013-04-25 22:52:00,60.0,38.0,-100.00,WNW,286,8.0,18.0,44,0.00,,,0.00,0.000000,,2013-04-26 05:52:00,
2013-04-25 23:02:00,60.0,38.0,-100.00,WNW,286,8.0,18.0,44,0.00,,,0.00,0.000000,,2013-04-26 06:02:00,
2013-04-25 23:11:00,60.0,38.0,-100.00,WNW,286,8.0,18.0,44,0.00,,,0.00,0.000000,,2013-04-26 06:11:00,
2013-04-25 23:21:00,60.0,38.0,-100.00,WNW,286,8.0,18.0,44,0.00,,,0.00,0.000000,,2013-04-26 06:21:00,
2013-04-25 23:52:00,57.0,39.0,-100.00,West,263,8.0,11.0,51,0.00,,,0.00,0.000000,,2013-04-26 06:52:00,